createdAt,value
2022-12-18T00:01:28.096Z,-9.21
2022-12-18T00:03:56.763Z,-9.17
2022-12-18T00:06:25.382Z,-9.20
2022-12-18T00:08:52.408Z,-9.20
2022-12-18T00:11:22.730Z,-9.20
2022-12-18T00:13:50.428Z,-9.30
2022-12-18T00:16:23.207Z,-9.42
2022-12-18T00:18:51.930Z,-9.48
2022-12-18T00:21:19.304Z,-9.41
2022-12-18T00:23:46.327Z,-9.35
2022-12-18T00:26:24.411Z,-9.34
2022-12-18T00:28:57.636Z,-9.27
2022-12-18T00:31:25.831Z,-9.26
2022-12-18T00:33:56.393Z,-9.29
2022-12-18T00:36:26.643Z,-9.35
2022-12-18T00:38:55.806Z,-9.52
2022-12-18T00:41:42.007Z,-9.44
2022-12-18T00:44:11.609Z,-9.42
2022-12-18T00:46:38.392Z,-9.40
2022-12-18T00:49:05.944Z,-9.42
2022-12-18T00:51:32.756Z,-9.48
2022-12-18T00:53:59.629Z,-9.52
2022-12-18T00:56:26.635Z,-9.55
2022-12-18T00:58:53.957Z,-9.61
2022-12-18T01:01:21.155Z,-9.70
2022-12-18T01:03:48.335Z,-9.72
2022-12-18T01:06:17.594Z,-9.63
2022-12-18T01:08:44.896Z,-9.68
2022-12-18T01:11:19.063Z,-9.68
2022-12-18T01:13:45.787Z,-9.74
2022-12-18T01:16:14.831Z,-9.70
2022-12-18T01:18:41.667Z,-9.64
2022-12-18T01:21:13.027Z,-9.53
2022-12-18T01:23:40.558Z,-9.54
2022-12-18T01:26:10.302Z,-9.51
2022-12-18T01:28:37.768Z,-9.55
2022-12-18T01:31:12.304Z,-9.61
2022-12-18T01:33:39.369Z,-9.81
2022-12-18T01:36:06.776Z,-9.80
2022-12-18T01:38:33.449Z,-9.87
2022-12-18T01:41:00.985Z,-9.87
2022-12-18T01:43:58.286Z,-9.92
2022-12-18T01:46:26.703Z,-9.87
2022-12-18T01:49:02.259Z,-9.80
2022-12-18T01:51:31.479Z,-9.84
2022-12-18T01:54:00.118Z,-9.89
2022-12-18T01:56:26.880Z,-9.85
2022-12-18T01:59:05.700Z,-9.78
2022-12-18T02:01:33.809Z,-9.71
2022-12-18T02:04:23.636Z,-9.57
2022-12-18T02:07:05.089Z,-9.57
2022-12-18T02:09:40.033Z,-9.49
2022-12-18T02:12:21.428Z,-9.38
2022-12-18T02:15:09.594Z,-9.46
2022-12-18T02:17:51.155Z,-9.56
2022-12-18T02:20:24.768Z,-9.67
2022-12-18T02:23:24.676Z,-9.59
2022-12-18T02:26:27.247Z,-9.48
2022-12-18T02:29:11.488Z,-9.41
2022-12-18T02:31:46.423Z,-9.42
2022-12-18T02:34:15.886Z,-9.39
2022-12-18T02:36:45.343Z,-9.31
2022-12-18T02:39:15.051Z,-9.29
2022-12-18T02:41:51.900Z,-9.29
2022-12-18T02:44:19.444Z,-9.26
2022-12-18T02:46:55.765Z,-9.27
2022-12-18T02:49:50.651Z,-9.24
2022-12-18T02:52:43.798Z,-9.20
2022-12-18T02:55:47.270Z,-9.22
2022-12-18T02:58:25.633Z,-9.15
2022-12-18T03:01:03.526Z,-9.10
2022-12-18T03:03:37.698Z,-9.10
2022-12-18T03:06:15.898Z,-9.01
2022-12-18T03:08:48.188Z,-9.02
2022-12-18T03:11:16.494Z,-9.01
2022-12-18T03:13:52.004Z,-9.02
2022-12-18T03:16:25.089Z,-8.92
2022-12-18T03:18:58.406Z,-8.91
2022-12-18T03:21:47.883Z,-8.89
2022-12-18T03:24:18.119Z,-8.93
2022-12-18T03:26:54.523Z,-8.88
2022-12-18T03:29:27.993Z,-8.89
2022-12-18T03:32:05.963Z,-8.83
2022-12-18T03:34:36.440Z,-8.76
2022-12-18T03:37:07.189Z,-8.72
2022-12-18T03:39:35.969Z,-8.66
2022-12-18T03:42:16.922Z,-8.64
2022-12-18T03:45:04.036Z,-8.72
2022-12-18T03:47:53.849Z,-8.75
2022-12-18T03:50:35.220Z,-8.68
2022-12-18T03:53:18.177Z,-8.60
2022-12-18T03:55:48.965Z,-8.62
2022-12-18T03:58:20.794Z,-8.63
2022-12-18T04:00:57.959Z,-8.61
2022-12-18T04:03:26.750Z,-8.65
2022-12-18T04:05:56.323Z,-8.68
2022-12-18T04:08:24.933Z,-8.71
2022-12-18T04:11:01.645Z,-8.79
2022-12-18T04:13:39.220Z,-8.87
2022-12-18T04:16:11.562Z,-8.88
2022-12-18T04:18:42.011Z,-8.83
2022-12-18T04:21:09.184Z,-8.81
2022-12-18T04:23:37.087Z,-8.79
2022-12-18T04:26:04.039Z,-8.91
2022-12-18T04:28:45.735Z,-8.95
2022-12-18T04:31:13.632Z,-8.91
2022-12-18T04:33:41.076Z,-8.94
2022-12-18T04:36:08.722Z,-8.96
2022-12-18T04:38:35.488Z,-8.95
2022-12-18T04:41:07.596Z,-8.90
2022-12-18T04:43:36.301Z,-8.88
2022-12-18T04:46:07.963Z,-8.94
2022-12-18T04:48:35.679Z,-8.92
2022-12-18T04:51:03.255Z,-8.95
2022-12-18T04:53:29.938Z,-8.91
2022-12-18T04:56:07.941Z,-8.92
2022-12-18T04:58:34.676Z,-8.92
2022-12-18T05:01:01.998Z,-8.89
2022-12-18T05:03:30.234Z,-8.86
2022-12-18T05:05:56.959Z,-8.85
2022-12-18T05:08:23.637Z,-8.88
2022-12-18T05:10:50.290Z,-8.88
2022-12-18T05:13:16.982Z,-8.86
2022-12-18T05:15:43.650Z,-8.87
2022-12-18T05:18:10.378Z,-8.84
2022-12-18T05:20:37.088Z,-8.84
2022-12-18T05:23:03.827Z,-8.83
2022-12-18T05:25:30.550Z,-8.85
2022-12-18T05:27:57.607Z,-8.82
2022-12-18T05:30:24.722Z,-8.78
2022-12-18T05:32:51.385Z,-8.78
2022-12-18T05:35:18.378Z,-8.78
2022-12-18T05:37:45.235Z,-8.77
2022-12-18T05:40:12.592Z,-8.75
2022-12-18T05:42:39.391Z,-8.65
2022-12-18T05:45:06.837Z,-8.64
2022-12-18T05:47:33.694Z,-8.61
2022-12-18T05:50:00.370Z,-8.60
2022-12-18T05:52:27.116Z,-8.67
2022-12-18T05:54:53.764Z,-8.68
2022-12-18T05:57:20.438Z,-8.66
2022-12-18T05:59:47.066Z,-8.64
2022-12-18T06:02:13.912Z,-8.71
2022-12-18T06:04:40.645Z,-8.69
2022-12-18T06:07:07.372Z,-8.61
2022-12-18T06:09:34.083Z,-8.57
2022-12-18T06:12:00.844Z,-8.53
2022-12-18T06:14:27.532Z,-8.59
2022-12-18T06:16:54.203Z,-8.53
2022-12-18T06:19:20.903Z,-8.56
2022-12-18T06:21:47.781Z,-8.50
2022-12-18T06:24:14.423Z,-8.53
2022-12-18T06:26:41.262Z,-8.47
2022-12-18T06:29:08.015Z,-8.44
2022-12-18T06:31:34.842Z,-8.42
2022-12-18T06:34:04.092Z,-8.57
2022-12-18T06:36:32.028Z,-8.49
2022-12-18T06:38:58.721Z,-8.43
2022-12-18T06:41:25.521Z,-8.42
2022-12-18T06:43:55.569Z,-8.43
2022-12-18T06:46:24.881Z,-8.38
2022-12-18T06:48:51.690Z,-8.35
2022-12-18T06:51:22.502Z,-8.37
2022-12-18T06:53:49.989Z,-8.35
2022-12-18T06:56:17.032Z,-8.27
2022-12-18T06:58:43.759Z,-8.33
2022-12-18T07:01:12.239Z,-8.31
2022-12-18T07:03:41.140Z,-8.34
2022-12-18T07:06:18.333Z,-8.34
2022-12-18T07:08:46.291Z,-8.21
2022-12-18T07:11:13.597Z,-8.13
2022-12-18T07:13:40.661Z,-8.09
2022-12-18T07:16:18.386Z,-8.07
2022-12-18T07:18:47.935Z,-8.05
2022-12-18T07:21:17.216Z,-8.04
2022-12-18T07:23:44.790Z,-8.05
2022-12-18T07:26:13.779Z,-8.03
2022-12-18T07:28:41.852Z,-8.03
2022-12-18T07:31:11.401Z,-8.01
2022-12-18T07:33:38.976Z,-7.98
2022-12-18T07:36:07.751Z,-7.99
2022-12-18T07:38:36.273Z,-8.04
2022-12-18T07:41:08.540Z,-8.09
2022-12-18T07:43:36.455Z,-8.06
2022-12-18T07:46:03.877Z,-8.04
2022-12-18T07:48:30.619Z,-8.03
2022-12-18T07:51:01.395Z,-8.01
2022-12-18T07:53:28.632Z,-7.99
2022-12-18T07:56:26.482Z,-8.01
2022-12-18T07:58:49.971Z,-8.01
2022-12-18T08:01:16.803Z,-8.00
2022-12-18T08:03:44.072Z,-7.92
2022-12-18T08:06:11.211Z,-8.02
2022-12-18T08:08:38.106Z,-7.95
2022-12-18T08:11:04.988Z,-7.92
2022-12-18T08:13:31.838Z,-8.00
2022-12-18T08:15:59.333Z,-7.99
2022-12-18T08:18:26.437Z,-7.99
2022-12-18T08:20:53.172Z,-7.95
2022-12-18T08:23:20.229Z,-7.98
2022-12-18T08:25:47.089Z,-7.96
2022-12-18T08:28:13.864Z,-7.92
2022-12-18T08:30:40.548Z,-7.92
2022-12-18T08:33:07.645Z,-8.00
2022-12-18T08:35:42.525Z,-8.03
2022-12-18T08:38:12.195Z,-7.86
2022-12-18T08:40:38.847Z,-7.83
2022-12-18T08:43:24.529Z,-7.86
2022-12-18T08:45:51.376Z,-7.82
2022-12-18T08:48:22.172Z,-7.75
2022-12-18T08:51:00.001Z,-7.68
2022-12-18T08:53:30.355Z,-7.68
2022-12-18T08:56:00.766Z,-7.70
2022-12-18T08:58:27.448Z,-7.70
2022-12-18T09:00:54.129Z,-7.68
2022-12-18T09:03:23.560Z,-7.69
2022-12-18T09:05:51.097Z,-7.69
2022-12-18T09:08:17.739Z,-7.73
2022-12-18T09:10:49.255Z,-7.59
2022-12-18T09:13:17.171Z,-7.43
2022-12-18T09:15:53.721Z,-7.28
2022-12-18T09:18:23.370Z,-7.44
2022-12-18T09:20:52.749Z,-7.51
2022-12-18T09:23:19.890Z,-7.37
2022-12-18T09:25:46.565Z,-7.42
2022-12-18T09:28:15.726Z,-7.42
2022-12-18T09:30:48.436Z,-7.39
2022-12-18T09:33:15.557Z,-7.31
2022-12-18T09:35:44.157Z,-7.31
2022-12-18T09:38:19.339Z,-7.44
2022-12-18T09:40:58.627Z,-7.43
2022-12-18T09:43:42.313Z,-7.38
2022-12-18T09:46:17.187Z,-7.42
2022-12-18T09:48:48.715Z,-7.38
2022-12-18T09:51:46.310Z,-7.30
2022-12-18T09:54:18.849Z,-7.15
2022-12-18T09:56:45.795Z,-7.24
2022-12-18T09:59:27.602Z,-7.04
2022-12-18T10:01:55.234Z,-7.07
2022-12-18T10:04:22.032Z,-7.14
2022-12-18T10:07:17.352Z,-7.15
2022-12-18T10:10:07.509Z,-6.98
2022-12-18T10:12:47.408Z,-6.88
2022-12-18T10:15:29.791Z,-6.89
2022-12-18T10:18:07.494Z,-6.87
2022-12-18T10:20:38.638Z,-6.91
2022-12-18T10:23:19.493Z,-6.93
2022-12-18T10:26:04.402Z,-6.91
2022-12-18T10:28:33.287Z,-6.94
2022-12-18T10:30:59.987Z,-6.81
2022-12-18T10:33:31.309Z,-6.68
2022-12-18T10:35:58.404Z,-6.73
2022-12-18T10:38:30.902Z,-6.70
2022-12-18T10:40:59.078Z,-6.61
2022-12-18T10:43:33.893Z,-6.65
2022-12-18T10:46:17.995Z,-6.58
2022-12-18T10:48:47.643Z,-6.48
2022-12-18T10:51:26.202Z,-6.39
2022-12-18T10:54:22.045Z,-6.34
2022-12-18T10:56:49.608Z,-6.52
2022-12-18T10:59:18.335Z,-6.53
2022-12-18T11:01:59.471Z,-6.57
2022-12-18T11:04:27.907Z,-6.68
2022-12-18T11:06:57.855Z,-6.70
2022-12-18T11:09:29.915Z,-6.59
2022-12-18T11:12:00.291Z,-6.44
2022-12-18T11:14:57.500Z,-6.34
2022-12-18T11:17:33.351Z,-6.29
2022-12-18T11:20:27.609Z,-6.30
2022-12-18T11:23:04.284Z,-6.25
2022-12-18T11:25:34.977Z,-6.25
2022-12-18T11:28:05.161Z,-6.33
2022-12-18T11:30:37.549Z,-6.44
2022-12-18T11:33:06.550Z,-6.48
2022-12-18T11:35:58.628Z,-6.48
2022-12-18T11:38:29.882Z,-6.44
2022-12-18T11:41:19.873Z,-6.44
2022-12-18T11:43:53.999Z,-6.32
2022-12-18T11:46:56.661Z,-6.27
2022-12-18T11:49:36.514Z,-6.44
2022-12-18T11:52:12.994Z,-6.39
2022-12-18T11:54:39.628Z,-6.48
2022-12-18T11:57:24.900Z,-6.37
2022-12-18T12:00:02.178Z,-6.18
2022-12-18T12:03:04.306Z,-6.11
2022-12-18T12:05:55.466Z,-6.20
2022-12-18T12:08:41.219Z,-6.16
2022-12-18T12:11:19.956Z,-6.25
2022-12-18T12:14:29.952Z,-6.36
2022-12-18T12:17:28.076Z,-6.40
2022-12-18T12:20:36.881Z,-6.42
2022-12-18T12:23:11.308Z,-6.52
2022-12-18T12:25:43.910Z,-6.49
2022-12-18T12:28:13.505Z,-6.51
2022-12-18T12:30:48.893Z,-6.47
2022-12-18T12:33:41.401Z,-6.56
2022-12-18T12:36:08.214Z,-6.70
2022-12-18T12:38:51.565Z,-6.67
2022-12-18T12:41:41.306Z,-6.58
2022-12-18T12:44:14.584Z,-6.52
2022-12-18T12:46:43.459Z,-6.33
2022-12-18T12:49:19.398Z,-6.37
2022-12-18T12:51:54.422Z,-6.44
2022-12-18T12:54:25.617Z,-6.43
2022-12-18T12:56:59.115Z,-6.33
2022-12-18T12:59:35.537Z,-6.24
2022-12-18T13:02:30.569Z,-6.19
2022-12-18T13:05:03.037Z,-6.14
2022-12-18T13:07:51.238Z,-6.29
2022-12-18T13:10:19.148Z,-6.39
2022-12-18T13:13:01.924Z,-6.36
2022-12-18T13:15:31.597Z,-6.36
2022-12-18T13:18:21.382Z,-6.39
2022-12-18T13:21:23.041Z,-6.31
2022-12-18T13:23:50.205Z,-6.36
2022-12-18T13:26:23.384Z,-6.45
2022-12-18T13:28:57.244Z,-6.47
2022-12-18T13:31:42.524Z,-6.51
2022-12-18T13:34:29.408Z,-6.54
2022-12-18T13:37:18.366Z,-6.58
2022-12-18T13:39:45.117Z,-6.53
2022-12-18T13:42:32.609Z,-6.65
2022-12-18T13:44:59.348Z,-6.72
2022-12-18T13:47:34.756Z,-6.75
2022-12-18T13:50:03.797Z,-6.73
2022-12-18T13:52:38.386Z,-6.70
2022-12-18T13:55:15.751Z,-6.77
2022-12-18T13:57:42.518Z,-6.79
2022-12-18T14:00:36.263Z,-6.78
2022-12-18T14:03:03.156Z,-6.76
2022-12-18T14:05:32.521Z,-6.75
2022-12-18T14:08:06.644Z,-6.79
2022-12-18T14:10:47.648Z,-6.72
2022-12-18T14:13:31.904Z,-6.61
2022-12-18T14:16:03.783Z,-6.74
2022-12-18T14:18:46.958Z,-6.71
2022-12-18T14:21:33.576Z,-6.65
2022-12-18T14:24:19.506Z,-6.59
2022-12-18T14:26:48.558Z,-6.51
2022-12-18T14:29:26.817Z,-6.62
2022-12-18T14:32:18.855Z,-6.88
2022-12-18T14:34:51.344Z,-6.83
2022-12-18T14:37:22.229Z,-6.92
2022-12-18T14:40:10.492Z,-6.94
2022-12-18T14:42:38.516Z,-6.84
2022-12-18T14:45:42.049Z,-7.16
2022-12-18T14:48:12.417Z,-6.85
2022-12-18T14:50:40.696Z,-6.96
2022-12-18T14:53:07.426Z,-6.94
2022-12-18T14:55:34.215Z,-7.01
2022-12-18T14:58:00.877Z,-7.12
2022-12-18T15:00:28.001Z,-7.17
2022-12-18T15:02:57.637Z,-7.23
2022-12-18T15:05:29.176Z,-7.17
2022-12-18T15:07:58.569Z,-7.20
2022-12-18T15:10:30.845Z,-7.19
2022-12-18T15:12:57.517Z,-7.15
2022-12-18T15:15:43.428Z,-7.05
2022-12-18T15:18:11.475Z,-7.03
2022-12-18T15:20:56.073Z,-7.08
2022-12-18T15:23:24.288Z,-7.09
2022-12-18T15:25:59.875Z,-7.10
2022-12-18T15:28:28.328Z,-7.16
2022-12-18T15:31:17.812Z,-7.15
2022-12-18T15:33:53.171Z,-7.13
2022-12-18T15:36:26.413Z,-7.22
2022-12-18T15:38:55.056Z,-7.21
2022-12-18T15:41:24.912Z,-7.19
2022-12-18T15:43:53.271Z,-7.13
2022-12-18T15:46:22.430Z,-7.09
2022-12-18T15:48:54.404Z,-7.06
2022-12-18T15:51:34.228Z,-7.14
2022-12-18T15:54:04.744Z,-7.23
2022-12-18T15:56:51.262Z,-7.18
2022-12-18T15:59:20.193Z,-7.18
2022-12-18T16:01:53.936Z,-7.17
2022-12-18T16:04:22.408Z,-7.18
2022-12-18T16:09:37.830Z,-7.20
2022-12-18T16:12:05.216Z,-7.14
2022-12-18T16:14:33.213Z,-7.14
2022-12-18T16:17:06.435Z,-7.07
2022-12-18T16:19:33.245Z,-7.20
2022-12-18T16:22:02.545Z,-7.14
2022-12-18T16:24:31.668Z,-7.12
2022-12-18T16:27:01.323Z,-7.09
2022-12-18T16:29:29.887Z,-7.09
2022-12-18T16:31:58.509Z,-7.16
2022-12-18T16:34:29.272Z,-7.12
2022-12-18T16:37:08.326Z,-7.11
2022-12-18T16:39:35.994Z,-7.09
2022-12-18T16:42:06.298Z,-7.11
2022-12-18T16:44:34.750Z,-7.16
2022-12-18T16:47:04.137Z,-7.18
2022-12-18T16:49:31.763Z,-7.13
2022-12-18T16:51:58.476Z,-7.11
2022-12-18T16:54:26.652Z,-7.15
2022-12-18T16:56:53.678Z,-7.13
2022-12-18T16:59:21.380Z,-7.10
2022-12-18T17:01:49.105Z,-7.10
2022-12-18T17:04:17.211Z,-7.16
2022-12-18T17:06:46.043Z,-7.11
2022-12-18T17:09:16.791Z,-7.13
2022-12-18T17:11:44.578Z,-7.13
2022-12-18T17:14:15.009Z,-7.13
2022-12-18T17:16:42.061Z,-7.17
2022-12-18T17:19:13.717Z,-7.14
2022-12-18T17:21:45.741Z,-7.14
2022-12-18T17:24:12.426Z,-7.13
2022-12-18T17:26:39.771Z,-7.05
2022-12-18T17:29:06.621Z,-7.04
2022-12-18T17:31:34.143Z,-7.05
2022-12-18T17:34:04.468Z,-7.08
2022-12-18T17:36:32.349Z,-7.09
2022-12-18T17:39:02.226Z,-7.06
2022-12-18T17:41:30.599Z,-7.10
2022-12-18T17:44:03.413Z,-7.12
2022-12-18T17:46:32.312Z,-7.02
2022-12-18T17:49:00.285Z,-6.98
2022-12-18T17:51:27.464Z,-6.95
2022-12-18T17:53:54.384Z,-6.94
2022-12-18T17:56:23.214Z,-6.95
2022-12-18T17:58:50.944Z,-6.92
2022-12-18T18:01:21.494Z,-6.93
2022-12-18T18:03:51.536Z,-6.87
2022-12-18T18:06:20.554Z,-6.88
2022-12-18T18:08:47.416Z,-6.89
2022-12-18T18:11:37.016Z,-6.93
2022-12-18T18:14:06.998Z,-7.00
2022-12-18T18:16:33.954Z,-7.04
2022-12-18T18:19:03.348Z,-7.07
2022-12-18T18:21:31.457Z,-7.03
2022-12-18T18:24:01.763Z,-7.04
2022-12-18T18:26:31.214Z,-7.04
2022-12-18T18:28:59.842Z,-7.03
2022-12-18T18:31:30.147Z,-6.99
2022-12-18T18:33:57.204Z,-7.09
2022-12-18T18:36:24.487Z,-7.08
2022-12-18T18:38:52.149Z,-7.07
2022-12-18T18:41:19.303Z,-7.12
2022-12-18T18:43:46.338Z,-7.13
2022-12-18T18:46:15.413Z,-7.14
2022-12-18T18:48:43.770Z,-7.17
2022-12-18T18:51:20.148Z,-7.11
2022-12-18T18:53:50.309Z,-7.08
2022-12-18T18:59:05.556Z,-7.15
2022-12-18T19:01:32.419Z,-7.14
2022-12-18T19:03:59.188Z,-7.13
2022-12-18T19:06:28.466Z,-7.15
2022-12-18T19:08:57.196Z,-7.17
2022-12-18T19:11:44.111Z,-7.19
2022-12-18T19:14:13.312Z,-7.07
2022-12-18T19:16:40.959Z,-7.09
2022-12-18T19:19:07.853Z,-7.17
2022-12-18T19:21:35.754Z,-7.18
2022-12-18T19:24:02.918Z,-7.14
2022-12-18T19:26:30.255Z,-7.22
2022-12-18T19:29:04.321Z,-7.19
2022-12-18T19:31:35.709Z,-7.18
2022-12-18T19:34:04.225Z,-7.14
2022-12-18T19:36:32.366Z,-7.19
2022-12-18T19:39:01.001Z,-7.21
2022-12-18T19:41:31.200Z,-7.22
2022-12-18T19:43:59.957Z,-7.21
2022-12-18T19:46:28.639Z,-7.21
2022-12-18T19:48:55.326Z,-7.16
2022-12-18T19:51:27.852Z,-7.12
2022-12-18T19:53:58.828Z,-7.15
2022-12-18T19:56:28.756Z,-7.10
2022-12-18T19:58:55.888Z,-7.05
2022-12-18T20:01:24.842Z,-7.08
2022-12-18T20:03:53.654Z,-7.10
2022-12-18T20:06:26.141Z,-7.00
2022-12-18T20:08:56.819Z,-7.07
2022-12-18T20:11:28.392Z,-7.08
2022-12-18T20:13:55.112Z,-7.08
2022-12-18T20:16:21.807Z,-7.03
2022-12-18T20:18:49.267Z,-7.03
2022-12-18T20:21:16.328Z,-7.08
2022-12-18T20:23:43.611Z,-7.13
2022-12-18T20:26:10.748Z,-7.21
2022-12-18T20:28:40.332Z,-7.15
2022-12-18T20:31:13.665Z,-7.12
2022-12-18T20:33:41.907Z,-7.11
2022-12-18T20:36:14.292Z,-7.04
2022-12-18T20:38:42.173Z,-7.14
2022-12-18T20:41:17.241Z,-7.06
2022-12-18T20:43:45.056Z,-7.05
2022-12-18T20:46:14.619Z,-7.06
2022-12-18T20:48:42.524Z,-7.05
2022-12-18T20:51:13.457Z,-7.09
2022-12-18T20:53:41.973Z,-7.09
2022-12-18T20:56:17.773Z,-7.07
2022-12-18T20:58:48.601Z,-7.05
2022-12-18T21:01:18.981Z,-7.03
2022-12-18T21:03:46.970Z,-7.01
2022-12-18T21:06:15.472Z,-7.14
2022-12-18T21:08:42.511Z,-7.17
2022-12-18T21:11:40.157Z,-7.18
2022-12-18T21:14:11.250Z,-7.22
2022-12-18T21:16:39.963Z,-7.21
2022-12-18T21:19:07.088Z,-7.18
2022-12-18T21:21:35.898Z,-7.13
2022-12-18T21:24:06.370Z,-7.19
2022-12-18T21:26:33.365Z,-7.15
2022-12-18T21:29:03.101Z,-7.15
2022-12-18T21:31:33.365Z,-7.17
2022-12-18T21:34:02.031Z,-7.16
2022-12-18T21:36:30.254Z,-7.28
2022-12-18T21:38:58.428Z,-7.23
2022-12-18T21:41:45.443Z,-7.22
2022-12-18T21:44:14.969Z,-7.21
2022-12-18T21:46:44.250Z,-7.21
2022-12-18T21:49:14.404Z,-7.22
2022-12-18T21:51:41.498Z,-7.05
2022-12-18T21:54:08.192Z,-7.10
2022-12-18T21:56:56.154Z,-7.13
2022-12-18T21:59:24.158Z,-7.12
2022-12-18T22:01:52.456Z,-7.12
2022-12-18T22:04:20.378Z,-7.06
2022-12-18T22:06:49.080Z,-7.07
2022-12-18T22:09:19.301Z,-7.01
2022-12-18T22:11:47.156Z,-7.04
2022-12-18T22:14:14.835Z,-7.10
2022-12-18T22:16:42.562Z,-7.17
2022-12-18T22:19:11.655Z,-7.14
2022-12-18T22:21:41.148Z,-7.14
2022-12-18T22:24:20.130Z,-7.17
2022-12-18T22:26:47.326Z,-7.11
2022-12-18T22:29:35.296Z,-7.10
2022-12-18T22:32:02.522Z,-7.11
2022-12-18T22:34:29.255Z,-7.11
2022-12-18T22:36:56.735Z,-7.10
2022-12-18T22:39:26.998Z,-7.12
2022-12-18T22:41:55.757Z,-7.06
2022-12-18T22:44:22.557Z,-7.07
2022-12-18T22:47:00.629Z,-7.07
2022-12-18T22:49:35.091Z,-7.12
2022-12-18T22:52:03.780Z,-7.09
2022-12-18T22:54:30.710Z,-7.05
2022-12-18T22:56:57.453Z,-7.05
2022-12-18T22:59:24.679Z,-7.05
2022-12-18T23:01:58.830Z,-7.02
2022-12-18T23:04:31.199Z,-7.04
2022-12-18T23:07:06.707Z,-6.97
2022-12-18T23:09:33.487Z,-7.00
2022-12-18T23:12:00.526Z,-7.04
2022-12-18T23:14:28.980Z,-6.99
2022-12-18T23:16:55.713Z,-6.94
2022-12-18T23:19:23.642Z,-6.96
2022-12-18T23:21:51.283Z,-6.95
2022-12-18T23:24:18.184Z,-6.93
2022-12-18T23:26:44.850Z,-6.96
2022-12-18T23:29:11.490Z,-7.00
2022-12-18T23:31:39.521Z,-6.99
2022-12-18T23:34:06.986Z,-7.02
2022-12-18T23:36:45.219Z,-6.99
2022-12-18T23:39:19.263Z,-6.94
2022-12-18T23:41:56.587Z,-6.94
2022-12-18T23:44:23.462Z,-6.89
2022-12-18T23:46:50.382Z,-6.93
2022-12-18T23:49:17.134Z,-6.89
2022-12-18T23:51:43.768Z,-6.84
2022-12-18T23:54:10.921Z,-6.84
2022-12-18T23:56:37.781Z,-6.82
2022-12-18T23:59:04.580Z,-6.85
